sensor_id;sensor_type;location;lat;lon;timestamp;temperature;humidity
13589;DHT22;6865;52.552;13.434;2023-06-26T00:01:07;19.50;99.90
13589;DHT22;6865;52.552;13.434;2023-06-26T00:03:34;19.70;99.90
13589;DHT22;6865;52.552;13.434;2023-06-26T00:06:01;19.80;99.90
13589;DHT22;6865;52.552;13.434;2023-06-26T00:08:28;19.90;99.90
13589;DHT22;6865;52.552;13.434;2023-06-26T00:10:55;20.00;99.90
13589;DHT22;6865;52.552;13.434;2023-06-26T00:13:23;19.90;99.90
13589;DHT22;6865;52.552;13.434;2023-06-26T00:15:51;19.80;99.90
13589;DHT22;6865;52.552;13.434;2023-06-26T00:18:17;19.70;99.90
13589;DHT22;6865;52.552;13.434;2023-06-26T00:20:44;19.70;99.90
13589;DHT22;6865;52.552;13.434;2023-06-26T00:23:12;19.70;99.90
13589;DHT22;6865;52.552;13.434;2023-06-26T00:25:39;19.60;99.90
13589;DHT22;6865;52.552;13.434;2023-06-26T00:28:06;19.60;99.90
13589;DHT22;6865;52.552;13.434;2023-06-26T00:30:33;19.50;99.90
13589;DHT22;6865;52.552;13.434;2023-06-26T00:33:00;19.40;99.90
13589;DHT22;6865;52.552;13.434;2023-06-26T00:35:27;19.50;99.90
13589;DHT22;6865;52.552;13.434;2023-06-26T00:37:53;19.50;99.90
13589;DHT22;6865;52.552;13.434;2023-06-26T00:40:20;19.30;99.90
13589;DHT22;6865;52.552;13.434;2023-06-26T00:42:47;19.50;99.90
13589;DHT22;6865;52.552;13.434;2023-06-26T00:45:13;19.40;99.90
13589;DHT22;6865;52.552;13.434;2023-06-26T00:47:40;19.40;99.90
13589;DHT22;6865;52.552;13.434;2023-06-26T00:50:08;19.40;99.90
13589;DHT22;6865;52.552;13.434;2023-06-26T00:52:35;19.50;99.90
13589;DHT22;6865;52.552;13.434;2023-06-26T00:55:02;19.50;99.90
13589;DHT22;6865;52.552;13.434;2023-06-26T00:57:30;19.50;99.90
13589;DHT22;6865;52.552;13.434;2023-06-26T00:59:57;19.50;99.90
13589;DHT22;6865;52.552;13.434;2023-06-26T01:02:25;19.50;99.90
13589;DHT22;6865;52.552;13.434;2023-06-26T01:04:53;19.60;99.90
13589;DHT22;6865;52.552;13.434;2023-06-26T01:07:21;19.60;99.90
13589;DHT22;6865;52.552;13.434;2023-06-26T01:09:49;19.60;99.90
13589;DHT22;6865;52.552;13.434;2023-06-26T01:12:15;19.70;99.90
13589;DHT22;6865;52.552;13.434;2023-06-26T01:14:42;19.70;99.90
13589;DHT22;6865;52.552;13.434;2023-06-26T01:17:09;19.90;99.90
13589;DHT22;6865;52.552;13.434;2023-06-26T01:19:42;19.80;99.90
13589;DHT22;6865;52.552;13.434;2023-06-26T01:22:24;19.80;99.90
13589;DHT22;6865;52.552;13.434;2023-06-26T01:25:03;19.80;99.90
13589;DHT22;6865;52.552;13.434;2023-06-26T01:27:35;19.80;99.90
13589;DHT22;6865;52.552;13.434;2023-06-26T01:30:03;19.70;99.90
13589;DHT22;6865;52.552;13.434;2023-06-26T01:32:31;19.80;99.90
13589;DHT22;6865;52.552;13.434;2023-06-26T01:34:59;19.80;99.90
13589;DHT22;6865;52.552;13.434;2023-06-26T01:37:26;19.70;99.90
13589;DHT22;6865;52.552;13.434;2023-06-26T01:39:52;19.80;99.90
13589;DHT22;6865;52.552;13.434;2023-06-26T01:42:19;19.80;99.90
13589;DHT22;6865;52.552;13.434;2023-06-26T01:44:47;19.80;99.90
13589;DHT22;6865;52.552;13.434;2023-06-26T01:47:17;19.80;99.90
13589;DHT22;6865;52.552;13.434;2023-06-26T01:50:07;19.80;99.90
13589;DHT22;6865;52.552;13.434;2023-06-26T01:52:41;19.70;99.90
13589;DHT22;6865;52.552;13.434;2023-06-26T01:55:20;19.70;99.90
13589;DHT22;6865;52.552;13.434;2023-06-26T01:57:48;19.60;99.90
13589;DHT22;6865;52.552;13.434;2023-06-26T02:00:19;19.70;99.90
13589;DHT22;6865;52.552;13.434;2023-06-26T02:02:47;19.70;99.90
13589;DHT22;6865;52.552;13.434;2023-06-26T02:05:14;19.70;99.90
13589;DHT22;6865;52.552;13.434;2023-06-26T02:07:41;19.70;99.90
13589;DHT22;6865;52.552;13.434;2023-06-26T02:10:08;19.60;99.90
13589;DHT22;6865;52.552;13.434;2023-06-26T02:12:36;19.60;99.90
13589;DHT22;6865;52.552;13.434;2023-06-26T02:15:06;19.60;99.90
13589;DHT22;6865;52.552;13.434;2023-06-26T02:17:33;19.50;99.90
13589;DHT22;6865;52.552;13.434;2023-06-26T02:20:00;19.50;99.90
13589;DHT22;6865;52.552;13.434;2023-06-26T02:22:27;19.50;99.90
13589;DHT22;6865;52.552;13.434;2023-06-26T02:24:55;19.60;99.90
13589;DHT22;6865;52.552;13.434;2023-06-26T02:27:21;19.60;99.90
13589;DHT22;6865;52.552;13.434;2023-06-26T02:29:48;19.60;99.90
13589;DHT22;6865;52.552;13.434;2023-06-26T02:32:15;19.60;99.90
13589;DHT22;6865;52.552;13.434;2023-06-26T02:34:41;19.60;99.90
13589;DHT22;6865;52.552;13.434;2023-06-26T02:37:08;18.80;99.90
13589;DHT22;6865;52.552;13.434;2023-06-26T02:39:35;19.60;99.90
13589;DHT22;6865;52.552;13.434;2023-06-26T02:42:01;19.60;99.90
13589;DHT22;6865;52.552;13.434;2023-06-26T02:44:28;19.60;99.90
13589;DHT22;6865;52.552;13.434;2023-06-26T02:46:55;19.50;99.90
13589;DHT22;6865;52.552;13.434;2023-06-26T02:49:22;19.50;99.90
13589;DHT22;6865;52.552;13.434;2023-06-26T02:51:49;19.50;99.90
13589;DHT22;6865;52.552;13.434;2023-06-26T02:54:16;19.50;99.90
13589;DHT22;6865;52.552;13.434;2023-06-26T02:56:42;19.40;99.90
13589;DHT22;6865;52.552;13.434;2023-06-26T02:59:14;19.40;99.90
13589;DHT22;6865;52.552;13.434;2023-06-26T03:01:40;19.30;99.90
13589;DHT22;6865;52.552;13.434;2023-06-26T03:04:07;19.30;99.90
13589;DHT22;6865;52.552;13.434;2023-06-26T03:06:34;19.30;99.90
13589;DHT22;6865;52.552;13.434;2023-06-26T03:09:01;19.20;99.90
13589;DHT22;6865;52.552;13.434;2023-06-26T03:11:28;19.20;99.90
13589;DHT22;6865;52.552;13.434;2023-06-26T03:13:55;19.20;99.90
13589;DHT22;6865;52.552;13.434;2023-06-26T03:16:22;19.10;99.90
13589;DHT22;6865;52.552;13.434;2023-06-26T03:18:48;19.10;99.90
13589;DHT22;6865;52.552;13.434;2023-06-26T03:21:15;19.20;99.90
13589;DHT22;6865;52.552;13.434;2023-06-26T03:23:42;19.30;99.90
13589;DHT22;6865;52.552;13.434;2023-06-26T03:26:08;19.30;99.90
13589;DHT22;6865;52.552;13.434;2023-06-26T03:28:35;19.40;99.90
13589;DHT22;6865;52.552;13.434;2023-06-26T03:31:02;19.40;99.90
13589;DHT22;6865;52.552;13.434;2023-06-26T03:33:28;19.40;99.90
13589;DHT22;6865;52.552;13.434;2023-06-26T03:35:55;19.30;99.90
13589;DHT22;6865;52.552;13.434;2023-06-26T03:38:22;19.30;99.90
13589;DHT22;6865;52.552;13.434;2023-06-26T03:40:50;19.20;99.90
13589;DHT22;6865;52.552;13.434;2023-06-26T03:43:16;19.20;99.90
13589;DHT22;6865;52.552;13.434;2023-06-26T03:45:43;19.20;99.90
13589;DHT22;6865;52.552;13.434;2023-06-26T03:48:10;19.30;99.90
13589;DHT22;6865;52.552;13.434;2023-06-26T03:50:36;19.20;99.90
13589;DHT22;6865;52.552;13.434;2023-06-26T03:53:03;19.20;99.90
13589;DHT22;6865;52.552;13.434;2023-06-26T03:55:30;19.20;99.90
13589;DHT22;6865;52.552;13.434;2023-06-26T03:57:57;19.30;99.90
13589;DHT22;6865;52.552;13.434;2023-06-26T04:00:23;19.40;99.90
13589;DHT22;6865;52.552;13.434;2023-06-26T04:02:50;19.40;99.90
13589;DHT22;6865;52.552;13.434;2023-06-26T04:05:17;19.60;99.90
13589;DHT22;6865;52.552;13.434;2023-06-26T04:07:45;19.70;99.90
13589;DHT22;6865;52.552;13.434;2023-06-26T04:10:11;19.80;99.90
13589;DHT22;6865;52.552;13.434;2023-06-26T04:12:38;19.90;99.90
13589;DHT22;6865;52.552;13.434;2023-06-26T04:15:05;20.10;99.90
13589;DHT22;6865;52.552;13.434;2023-06-26T04:17:32;20.20;99.90
13589;DHT22;6865;52.552;13.434;2023-06-26T04:19:59;20.40;99.90
13589;DHT22;6865;52.552;13.434;2023-06-26T04:22:25;20.50;99.90
13589;DHT22;6865;52.552;13.434;2023-06-26T04:24:52;20.60;99.90
13589;DHT22;6865;52.552;13.434;2023-06-26T04:27:19;20.70;99.90
13589;DHT22;6865;52.552;13.434;2023-06-26T04:29:45;20.80;99.90
13589;DHT22;6865;52.552;13.434;2023-06-26T04:32:12;21.00;99.90
13589;DHT22;6865;52.552;13.434;2023-06-26T04:34:39;21.00;99.90
13589;DHT22;6865;52.552;13.434;2023-06-26T04:37:09;21.10;99.90
13589;DHT22;6865;52.552;13.434;2023-06-26T04:39:37;21.20;99.90
13589;DHT22;6865;52.552;13.434;2023-06-26T04:42:05;21.20;99.90
13589;DHT22;6865;52.552;13.434;2023-06-26T04:44:32;21.20;99.90
13589;DHT22;6865;52.552;13.434;2023-06-26T04:46:59;21.40;99.90
13589;DHT22;6865;52.552;13.434;2023-06-26T04:49:26;21.50;99.90
13589;DHT22;6865;52.552;13.434;2023-06-26T04:51:55;21.60;99.90
13589;DHT22;6865;52.552;13.434;2023-06-26T04:54:22;21.70;99.90
13589;DHT22;6865;52.552;13.434;2023-06-26T04:56:49;21.80;99.90
13589;DHT22;6865;52.552;13.434;2023-06-26T04:59:16;21.90;99.90
13589;DHT22;6865;52.552;13.434;2023-06-26T05:01:42;22.00;99.90
13589;DHT22;6865;52.552;13.434;2023-06-26T05:04:15;22.00;99.90
13589;DHT22;6865;52.552;13.434;2023-06-26T05:06:42;22.00;99.90
13589;DHT22;6865;52.552;13.434;2023-06-26T05:09:09;22.20;99.90
13589;DHT22;6865;52.552;13.434;2023-06-26T05:11:37;22.30;99.90
13589;DHT22;6865;52.552;13.434;2023-06-26T05:14:04;22.40;99.90
13589;DHT22;6865;52.552;13.434;2023-06-26T05:16:33;22.40;99.90
13589;DHT22;6865;52.552;13.434;2023-06-26T05:19:01;22.70;99.90
13589;DHT22;6865;52.552;13.434;2023-06-26T05:21:28;23.00;99.90
13589;DHT22;6865;52.552;13.434;2023-06-26T05:23:56;23.20;99.90
13589;DHT22;6865;52.552;13.434;2023-06-26T05:26:24;23.30;99.90
13589;DHT22;6865;52.552;13.434;2023-06-26T05:28:51;23.40;99.90
13589;DHT22;6865;52.552;13.434;2023-06-26T05:31:18;23.40;99.90
13589;DHT22;6865;52.552;13.434;2023-06-26T05:33:45;23.50;99.90
13589;DHT22;6865;52.552;13.434;2023-06-26T05:36:13;23.70;99.90
13589;DHT22;6865;52.552;13.434;2023-06-26T05:38:41;23.90;99.90
13589;DHT22;6865;52.552;13.434;2023-06-26T05:41:08;24.00;99.90
13589;DHT22;6865;52.552;13.434;2023-06-26T05:43:35;24.00;99.90
13589;DHT22;6865;52.552;13.434;2023-06-26T05:46:02;24.10;99.90
13589;DHT22;6865;52.552;13.434;2023-06-26T05:48:29;24.20;99.90
13589;DHT22;6865;52.552;13.434;2023-06-26T05:50:56;24.30;99.90
13589;DHT22;6865;52.552;13.434;2023-06-26T05:53:22;24.10;99.90
13589;DHT22;6865;52.552;13.434;2023-06-26T05:55:49;24.10;99.90
13589;DHT22;6865;52.552;13.434;2023-06-26T05:58:17;24.10;99.90
13589;DHT22;6865;52.552;13.434;2023-06-26T06:00:46;24.50;99.90
13589;DHT22;6865;52.552;13.434;2023-06-26T06:03:13;24.60;99.90
13589;DHT22;6865;52.552;13.434;2023-06-26T06:05:39;24.60;99.90
13589;DHT22;6865;52.552;13.434;2023-06-26T06:08:06;24.50;99.90
13589;DHT22;6865;52.552;13.434;2023-06-26T06:10:33;24.50;99.90
13589;DHT22;6865;52.552;13.434;2023-06-26T06:12:59;24.50;99.90
13589;DHT22;6865;52.552;13.434;2023-06-26T06:15:26;24.50;99.90
13589;DHT22;6865;52.552;13.434;2023-06-26T06:17:56;24.50;99.90
13589;DHT22;6865;52.552;13.434;2023-06-26T06:20:23;24.30;99.90
13589;DHT22;6865;52.552;13.434;2023-06-26T06:22:49;24.20;99.90
13589;DHT22;6865;52.552;13.434;2023-06-26T06:25:16;24.20;99.90
13589;DHT22;6865;52.552;13.434;2023-06-26T06:27:43;24.30;99.90
13589;DHT22;6865;52.552;13.434;2023-06-26T06:30:10;24.10;99.90
13589;DHT22;6865;52.552;13.434;2023-06-26T06:32:37;24.30;99.90
13589;DHT22;6865;52.552;13.434;2023-06-26T06:35:04;24.30;99.90
13589;DHT22;6865;52.552;13.434;2023-06-26T06:37:37;24.40;99.90
13589;DHT22;6865;52.552;13.434;2023-06-26T06:40:09;24.40;99.90
13589;DHT22;6865;52.552;13.434;2023-06-26T06:42:36;23.50;99.90
13589;DHT22;6865;52.552;13.434;2023-06-26T06:45:03;24.50;99.90
13589;DHT22;6865;52.552;13.434;2023-06-26T06:47:31;24.50;99.90
13589;DHT22;6865;52.552;13.434;2023-06-26T06:49:59;24.60;99.90
13589;DHT22;6865;52.552;13.434;2023-06-26T06:52:30;24.70;99.90
13589;DHT22;6865;52.552;13.434;2023-06-26T06:54:57;24.80;99.90
13589;DHT22;6865;52.552;13.434;2023-06-26T06:57:32;24.70;99.90
13589;DHT22;6865;52.552;13.434;2023-06-26T07:00:12;24.80;99.90
13589;DHT22;6865;52.552;13.434;2023-06-26T07:02:43;24.70;99.90
13589;DHT22;6865;52.552;13.434;2023-06-26T07:05:11;24.70;99.90
13589;DHT22;6865;52.552;13.434;2023-06-26T07:07:38;24.80;99.90
13589;DHT22;6865;52.552;13.434;2023-06-26T07:10:08;24.80;99.90
13589;DHT22;6865;52.552;13.434;2023-06-26T07:12:35;24.90;99.90
13589;DHT22;6865;52.552;13.434;2023-06-26T07:15:03;25.00;99.90
13589;DHT22;6865;52.552;13.434;2023-06-26T07:17:31;25.10;99.90
13589;DHT22;6865;52.552;13.434;2023-06-26T07:20:00;25.20;99.90
13589;DHT22;6865;52.552;13.434;2023-06-26T07:22:27;25.30;99.90
13589;DHT22;6865;52.552;13.434;2023-06-26T07:24:53;25.40;99.90
13589;DHT22;6865;52.552;13.434;2023-06-26T07:27:20;25.60;99.90
13589;DHT22;6865;52.552;13.434;2023-06-26T07:29:47;25.70;99.90
13589;DHT22;6865;52.552;13.434;2023-06-26T07:32:13;25.70;99.90
13589;DHT22;6865;52.552;13.434;2023-06-26T07:34:41;25.80;99.90
13589;DHT22;6865;52.552;13.434;2023-06-26T07:37:08;25.80;99.90
13589;DHT22;6865;52.552;13.434;2023-06-26T07:39:34;25.70;99.90
13589;DHT22;6865;52.552;13.434;2023-06-26T07:42:01;25.80;99.80
13589;DHT22;6865;52.552;13.434;2023-06-26T07:44:28;25.90;99.40
13589;DHT22;6865;52.552;13.434;2023-06-26T07:46:55;26.10;99.80
13589;DHT22;6865;52.552;13.434;2023-06-26T07:49:22;26.30;99.50
13589;DHT22;6865;52.552;13.434;2023-06-26T07:51:48;26.70;98.80
13589;DHT22;6865;52.552;13.434;2023-06-26T07:54:15;27.60;97.00
13589;DHT22;6865;52.552;13.434;2023-06-26T07:56:58;28.30;95.10
13589;DHT22;6865;52.552;13.434;2023-06-26T07:59:27;28.70;94.10
13589;DHT22;6865;52.552;13.434;2023-06-26T08:01:55;29.20;92.20
13589;DHT22;6865;52.552;13.434;2023-06-26T08:04:24;29.50;91.50
13589;DHT22;6865;52.552;13.434;2023-06-26T08:06:53;29.70;91.10
13589;DHT22;6865;52.552;13.434;2023-06-26T08:09:23;30.00;90.70
13589;DHT22;6865;52.552;13.434;2023-06-26T08:11:50;30.00;89.90
13589;DHT22;6865;52.552;13.434;2023-06-26T08:14:18;29.90;88.90
13589;DHT22;6865;52.552;13.434;2023-06-26T08:16:46;30.10;86.10
13589;DHT22;6865;52.552;13.434;2023-06-26T08:19:14;30.10;86.90
13589;DHT22;6865;52.552;13.434;2023-06-26T08:21:41;30.10;86.20
13589;DHT22;6865;52.552;13.434;2023-06-26T08:24:08;30.00;85.70
13589;DHT22;6865;52.552;13.434;2023-06-26T08:26:36;29.50;87.30
13589;DHT22;6865;52.552;13.434;2023-06-26T08:29:03;28.70;89.00
13589;DHT22;6865;52.552;13.434;2023-06-26T08:31:38;28.50;89.50
13589;DHT22;6865;52.552;13.434;2023-06-26T08:34:06;28.30;90.20
13589;DHT22;6865;52.552;13.434;2023-06-26T08:36:33;28.10;90.70
13589;DHT22;6865;52.552;13.434;2023-06-26T08:39:00;28.00;90.80
13589;DHT22;6865;52.552;13.434;2023-06-26T08:41:26;28.00;91.00
13589;DHT22;6865;52.552;13.434;2023-06-26T08:43:53;28.00;90.50
13589;DHT22;6865;52.552;13.434;2023-06-26T08:46:20;28.10;90.70
13589;DHT22;6865;52.552;13.434;2023-06-26T08:48:55;28.30;90.80
13589;DHT22;6865;52.552;13.434;2023-06-26T08:51:24;28.20;90.50
13589;DHT22;6865;52.552;13.434;2023-06-26T08:54:00;28.30;90.10
13589;DHT22;6865;52.552;13.434;2023-06-26T08:56:40;28.20;89.10
13589;DHT22;6865;52.552;13.434;2023-06-26T08:59:08;28.10;88.10
13589;DHT22;6865;52.552;13.434;2023-06-26T09:01:37;28.10;87.40
13589;DHT22;6865;52.552;13.434;2023-06-26T09:04:04;28.30;88.10
13589;DHT22;6865;52.552;13.434;2023-06-26T09:06:31;28.30;87.10
13589;DHT22;6865;52.552;13.434;2023-06-26T09:08:59;28.30;86.10
13589;DHT22;6865;52.552;13.434;2023-06-26T09:11:26;28.40;85.50
13589;DHT22;6865;52.552;13.434;2023-06-26T09:13:53;28.50;84.80
13589;DHT22;6865;52.552;13.434;2023-06-26T09:16:27;28.60;85.70
13589;DHT22;6865;52.552;13.434;2023-06-26T09:18:56;28.70;85.20
13589;DHT22;6865;52.552;13.434;2023-06-26T09:21:23;28.80;84.90
13589;DHT22;6865;52.552;13.434;2023-06-26T09:23:52;28.80;81.90
13589;DHT22;6865;52.552;13.434;2023-06-26T09:26:21;28.70;82.30
13589;DHT22;6865;52.552;13.434;2023-06-26T09:28:48;28.70;82.70
13589;DHT22;6865;52.552;13.434;2023-06-26T09:31:16;28.60;82.50
13589;DHT22;6865;52.552;13.434;2023-06-26T09:34:03;28.70;82.00
13589;DHT22;6865;52.552;13.434;2023-06-26T09:36:31;28.80;82.00
13589;DHT22;6865;52.552;13.434;2023-06-26T09:39:07;28.90;81.60
13589;DHT22;6865;52.552;13.434;2023-06-26T09:41:38;28.80;81.00
13589;DHT22;6865;52.552;13.434;2023-06-26T09:44:06;28.90;80.40
13589;DHT22;6865;52.552;13.434;2023-06-26T09:46:34;29.00;78.90
13589;DHT22;6865;52.552;13.434;2023-06-26T09:49:03;29.10;78.40
13589;DHT22;6865;52.552;13.434;2023-06-26T09:51:31;29.00;79.60
13589;DHT22;6865;52.552;13.434;2023-06-26T09:53:59;29.10;78.30
13589;DHT22;6865;52.552;13.434;2023-06-26T09:56:27;29.10;77.80
13589;DHT22;6865;52.552;13.434;2023-06-26T09:58:57;29.10;78.40
13589;DHT22;6865;52.552;13.434;2023-06-26T10:01:25;29.10;78.40
13589;DHT22;6865;52.552;13.434;2023-06-26T10:03:53;29.00;79.00
13589;DHT22;6865;52.552;13.434;2023-06-26T10:06:37;29.10;78.20
13589;DHT22;6865;52.552;13.434;2023-06-26T10:09:05;29.10;78.40
13589;DHT22;6865;52.552;13.434;2023-06-26T10:11:40;29.20;78.20
13589;DHT22;6865;52.552;13.434;2023-06-26T10:14:09;29.30;76.70
13589;DHT22;6865;52.552;13.434;2023-06-26T10:16:44;29.40;77.20
13589;DHT22;6865;52.552;13.434;2023-06-26T10:19:13;29.40;78.00
13589;DHT22;6865;52.552;13.434;2023-06-26T10:21:41;29.50;78.00
13589;DHT22;6865;52.552;13.434;2023-06-26T10:24:10;29.50;78.10
13589;DHT22;6865;52.552;13.434;2023-06-26T10:26:44;29.60;77.20
13589;DHT22;6865;52.552;13.434;2023-06-26T10:29:12;29.60;76.60
13589;DHT22;6865;52.552;13.434;2023-06-26T10:31:40;29.60;77.20
13589;DHT22;6865;52.552;13.434;2023-06-26T10:34:09;29.80;76.70
13589;DHT22;6865;52.552;13.434;2023-06-26T10:36:36;29.80;76.30
13589;DHT22;6865;52.552;13.434;2023-06-26T10:39:06;29.90;76.30
13589;DHT22;6865;52.552;13.434;2023-06-26T10:41:40;29.70;76.60
13589;DHT22;6865;52.552;13.434;2023-06-26T10:44:43;29.90;75.90
13589;DHT22;6865;52.552;13.434;2023-06-26T10:47:12;30.00;75.00
13589;DHT22;6865;52.552;13.434;2023-06-26T10:49:40;30.10;72.10
13589;DHT22;6865;52.552;13.434;2023-06-26T10:52:27;29.80;73.20
13589;DHT22;6865;52.552;13.434;2023-06-26T10:54:54;29.70;73.60
13589;DHT22;6865;52.552;13.434;2023-06-26T10:57:23;30.00;74.10
13589;DHT22;6865;52.552;13.434;2023-06-26T11:00:11;30.00;73.30
13589;DHT22;6865;52.552;13.434;2023-06-26T11:02:52;29.90;73.40
13589;DHT22;6865;52.552;13.434;2023-06-26T11:05:27;29.80;74.40
13589;DHT22;6865;52.552;13.434;2023-06-26T11:08:07;30.00;73.60
13589;DHT22;6865;52.552;13.434;2023-06-26T11:10:54;30.00;74.00
13589;DHT22;6865;52.552;13.434;2023-06-26T11:13:22;30.00;73.70
13589;DHT22;6865;52.552;13.434;2023-06-26T11:15:50;30.00;72.50
13589;DHT22;6865;52.552;13.434;2023-06-26T11:18:17;30.10;74.10
13589;DHT22;6865;52.552;13.434;2023-06-26T11:20:43;29.90;74.10
13589;DHT22;6865;52.552;13.434;2023-06-26T11:23:11;30.00;74.20
13589;DHT22;6865;52.552;13.434;2023-06-26T11:25:38;30.20;73.40
13589;DHT22;6865;52.552;13.434;2023-06-26T11:28:05;30.40;73.90
13589;DHT22;6865;52.552;13.434;2023-06-26T11:30:32;30.40;73.20
13589;DHT22;6865;52.552;13.434;2023-06-26T11:33:09;30.60;73.20
13589;DHT22;6865;52.552;13.434;2023-06-26T11:35:36;30.70;72.50
13589;DHT22;6865;52.552;13.434;2023-06-26T11:38:05;30.70;71.90
13589;DHT22;6865;52.552;13.434;2023-06-26T11:40:35;30.80;71.60
13589;DHT22;6865;52.552;13.434;2023-06-26T11:43:03;30.60;71.70
13589;DHT22;6865;52.552;13.434;2023-06-26T11:45:31;30.60;71.80
13589;DHT22;6865;52.552;13.434;2023-06-26T11:47:59;30.20;72.50
13589;DHT22;6865;52.552;13.434;2023-06-26T11:50:26;30.40;72.90
13589;DHT22;6865;52.552;13.434;2023-06-26T11:52:57;30.30;72.60
13589;DHT22;6865;52.552;13.434;2023-06-26T11:55:25;30.40;72.70
13589;DHT22;6865;52.552;13.434;2023-06-26T11:57:56;30.50;73.20
13589;DHT22;6865;52.552;13.434;2023-06-26T12:00:23;30.70;72.80
13589;DHT22;6865;52.552;13.434;2023-06-26T12:02:50;30.80;70.90
13589;DHT22;6865;52.552;13.434;2023-06-26T12:05:19;31.00;70.70
13589;DHT22;6865;52.552;13.434;2023-06-26T12:07:47;31.10;70.60
13589;DHT22;6865;52.552;13.434;2023-06-26T12:10:15;31.10;69.70
13589;DHT22;6865;52.552;13.434;2023-06-26T12:12:42;30.90;70.20
13589;DHT22;6865;52.552;13.434;2023-06-26T12:15:14;30.90;69.30
13589;DHT22;6865;52.552;13.434;2023-06-26T12:17:41;31.00;69.30
13589;DHT22;6865;52.552;13.434;2023-06-26T12:20:23;31.00;68.90
13589;DHT22;6865;52.552;13.434;2023-06-26T12:22:50;30.80;70.10
13589;DHT22;6865;52.552;13.434;2023-06-26T12:25:23;31.00;68.80
13589;DHT22;6865;52.552;13.434;2023-06-26T12:27:50;31.20;69.00
13589;DHT22;6865;52.552;13.434;2023-06-26T12:30:17;31.20;68.10
13589;DHT22;6865;52.552;13.434;2023-06-26T12:32:45;31.20;68.60
13589;DHT22;6865;52.552;13.434;2023-06-26T12:35:13;31.40;67.50
13589;DHT22;6865;52.552;13.434;2023-06-26T12:37:41;31.50;68.00
13589;DHT22;6865;52.552;13.434;2023-06-26T12:40:17;31.60;67.60
13589;DHT22;6865;52.552;13.434;2023-06-26T12:42:45;31.60;67.00
13589;DHT22;6865;52.552;13.434;2023-06-26T12:45:13;31.50;65.70
13589;DHT22;6865;52.552;13.434;2023-06-26T12:48:07;31.50;65.50
13589;DHT22;6865;52.552;13.434;2023-06-26T12:50:44;31.40;65.90
13589;DHT22;6865;52.552;13.434;2023-06-26T12:53:15;31.30;64.70
13589;DHT22;6865;52.552;13.434;2023-06-26T12:55:41;31.10;65.50
13589;DHT22;6865;52.552;13.434;2023-06-26T12:58:08;31.20;66.60
13589;DHT22;6865;52.552;13.434;2023-06-26T13:00:37;31.20;67.10
13589;DHT22;6865;52.552;13.434;2023-06-26T13:03:06;30.90;66.70
13589;DHT22;6865;52.552;13.434;2023-06-26T13:05:36;30.70;67.40
13589;DHT22;6865;52.552;13.434;2023-06-26T13:08:03;30.70;67.10
13589;DHT22;6865;52.552;13.434;2023-06-26T13:10:30;30.80;67.30
13589;DHT22;6865;52.552;13.434;2023-06-26T13:13:00;30.80;67.20
13589;DHT22;6865;52.552;13.434;2023-06-26T13:15:27;30.80;67.10
13589;DHT22;6865;52.552;13.434;2023-06-26T13:17:54;30.80;67.70
13589;DHT22;6865;52.552;13.434;2023-06-26T13:20:21;30.70;67.80
13589;DHT22;6865;52.552;13.434;2023-06-26T13:22:48;30.50;68.20
13589;DHT22;6865;52.552;13.434;2023-06-26T13:25:14;30.50;68.00
13589;DHT22;6865;52.552;13.434;2023-06-26T13:27:41;30.50;67.00
13589;DHT22;6865;52.552;13.434;2023-06-26T13:30:08;30.50;67.60
13589;DHT22;6865;52.552;13.434;2023-06-26T13:32:35;30.40;68.20
13589;DHT22;6865;52.552;13.434;2023-06-26T13:35:02;30.40;68.30
13589;DHT22;6865;52.552;13.434;2023-06-26T13:37:28;30.30;68.90
13589;DHT22;6865;52.552;13.434;2023-06-26T13:39:55;30.10;69.00
13589;DHT22;6865;52.552;13.434;2023-06-26T13:42:22;30.10;69.00
13589;DHT22;6865;52.552;13.434;2023-06-26T13:44:49;30.00;69.00
13589;DHT22;6865;52.552;13.434;2023-06-26T13:47:28;29.90;69.60
13589;DHT22;6865;52.552;13.434;2023-06-26T13:49:55;29.90;69.60
13589;DHT22;6865;52.552;13.434;2023-06-26T13:52:21;29.80;69.30
13589;DHT22;6865;52.552;13.434;2023-06-26T13:54:48;29.70;69.60
13589;DHT22;6865;52.552;13.434;2023-06-26T13:57:15;29.70;70.00
13589;DHT22;6865;52.552;13.434;2023-06-26T13:59:41;29.70;70.30
13589;DHT22;6865;52.552;13.434;2023-06-26T14:02:08;29.70;71.00
13589;DHT22;6865;52.552;13.434;2023-06-26T14:04:35;29.60;71.00
13589;DHT22;6865;52.552;13.434;2023-06-26T14:07:02;29.60;70.80
13589;DHT22;6865;52.552;13.434;2023-06-26T14:09:29;29.50;71.10
13589;DHT22;6865;52.552;13.434;2023-06-26T14:11:58;29.30;71.70
13589;DHT22;6865;52.552;13.434;2023-06-26T14:14:24;29.20;72.20
13589;DHT22;6865;52.552;13.434;2023-06-26T14:16:51;29.10;72.80
13589;DHT22;6865;52.552;13.434;2023-06-26T14:19:18;29.00;73.20
13589;DHT22;6865;52.552;13.434;2023-06-26T14:21:45;28.80;73.90
13589;DHT22;6865;52.552;13.434;2023-06-26T14:24:12;28.60;76.60
13589;DHT22;6865;52.552;13.434;2023-06-26T14:26:39;28.00;78.90
13589;DHT22;6865;52.552;13.434;2023-06-26T14:29:06;27.70;85.60
13589;DHT22;6865;52.552;13.434;2023-06-26T14:31:33;26.80;92.90
13589;DHT22;6865;52.552;13.434;2023-06-26T14:33:59;24.80;99.90
13589;DHT22;6865;52.552;13.434;2023-06-26T14:36:26;23.60;99.90
13589;DHT22;6865;52.552;13.434;2023-06-26T14:38:53;23.30;99.90
13589;DHT22;6865;52.552;13.434;2023-06-26T14:41:21;22.80;99.90
13589;DHT22;6865;52.552;13.434;2023-06-26T14:43:49;22.40;99.90
13589;DHT22;6865;52.552;13.434;2023-06-26T14:46:16;22.10;99.90
13589;DHT22;6865;52.552;13.434;2023-06-26T14:48:43;21.70;99.90
13589;DHT22;6865;52.552;13.434;2023-06-26T14:51:12;21.60;99.90
13589;DHT22;6865;52.552;13.434;2023-06-26T14:53:39;21.60;99.90
13589;DHT22;6865;52.552;13.434;2023-06-26T14:56:08;21.70;99.90
13589;DHT22;6865;52.552;13.434;2023-06-26T14:58:34;21.60;99.90
13589;DHT22;6865;52.552;13.434;2023-06-26T15:01:01;21.50;99.90
13589;DHT22;6865;52.552;13.434;2023-06-26T15:03:28;21.50;99.90
13589;DHT22;6865;52.552;13.434;2023-06-26T15:05:55;21.60;99.90
13589;DHT22;6865;52.552;13.434;2023-06-26T15:08:22;21.50;99.90
13589;DHT22;6865;52.552;13.434;2023-06-26T15:10:49;21.40;99.90
13589;DHT22;6865;52.552;13.434;2023-06-26T15:13:16;21.30;99.90
13589;DHT22;6865;52.552;13.434;2023-06-26T15:15:43;21.20;99.90
13589;DHT22;6865;52.552;13.434;2023-06-26T15:18:10;21.00;99.90
13589;DHT22;6865;52.552;13.434;2023-06-26T15:20:37;20.80;99.90
13589;DHT22;6865;52.552;13.434;2023-06-26T15:23:04;20.60;99.90
13589;DHT22;6865;52.552;13.434;2023-06-26T15:25:31;20.50;99.90
13589;DHT22;6865;52.552;13.434;2023-06-26T15:27:58;20.30;99.90
13589;DHT22;6865;52.552;13.434;2023-06-26T15:30:24;20.30;99.90
13589;DHT22;6865;52.552;13.434;2023-06-26T15:32:51;20.20;99.90
13589;DHT22;6865;52.552;13.434;2023-06-26T15:35:19;20.20;99.90
13589;DHT22;6865;52.552;13.434;2023-06-26T15:37:45;20.20;99.90